Time;durP1;ratioP1;P1;durP2;ratioP2;P2;SDS_P1;SDS_P2;PMS_P1;PMS_P2;Temp;Humidity;BMP_temperature;BMP_pressure;BME280_temperature;BME280_humidity;BME280_pressure;Samples;Min_cycle;Max_cycle;Signal;HPM_P1;HPM_P2
2021/12/29 00:04:29;;;;;;;19.17;11.78;;;;;;;-2.87;76.50;99681.28;3463391;80;20963;-68
2021/12/29 00:09:21;;;;;;;17.60;11.00;;;;;;;-2.91;76.36;99680.64;3474202;79;21004;-69
2021/12/29 00:14:13;;;;;;;19.07;11.38;;;;;;;-2.93;76.47;99674.20;3478651;79;20910;-70
2021/12/29 00:19:06;;;;;;;15.65;10.40;;;;;;;-2.93;76.56;99675.88;3433475;80;21014;-69
2021/12/29 00:24:00;;;;;;;16.95;10.28;;;;;;;-2.93;76.38;99676.74;3507076;79;21537;-69
2021/12/29 00:28:53;;;;;;;17.50;11.40;;;;;;;-2.94;76.47;99690.64;3511338;78;20878;-69
2021/12/29 00:33:45;;;;;;;18.73;11.05;;;;;;;-2.95;76.53;99677.44;3503541;79;20989;-69
2021/12/29 00:38:56;;;;;;;16.10;9.90;;;;;;;-2.98;76.45;99673.48;3520749;78;21575;-69
2021/12/29 00:44:09;;;;;;;21.68;13.28;;;;;;;-2.99;76.46;99675.53;3532851;79;20939;-69
2021/12/29 00:49:24;;;;;;;16.55;10.78;;;;;;;-2.95;76.63;99673.63;3546463;79;21081;-69
2021/12/29 00:54:16;;;;;;;14.80;9.23;;;;;;;-2.93;76.65;99682.23;3501616;79;21895;-69
2021/12/29 00:59:08;;;;;;;20.12;10.93;;;;;;;-2.84;76.70;99679.28;3517876;78;20938;-69
2021/12/29 01:04:00;;;;;;;20.50;11.68;;;;;;;-2.78;76.61;99683.04;3527100;78;20900;-69
2021/12/29 01:08:52;;;;;;;17.67;9.90;;;;;;;-2.73;76.53;99677.80;3531617;80;21049;-70
2021/12/29 01:13:48;;;;;;;17.17;10.53;;;;;;;-2.73;76.37;99680.34;3479243;80;21006;-70
2021/12/29 01:18:43;;;;;;;18.25;10.72;;;;;;;-2.62;76.55;99687.69;3521678;80;20956;-69
2021/12/29 01:23:35;;;;;;;15.30;9.78;;;;;;;-2.61;76.18;99689.05;3579326;79;20918;-70
2021/12/29 01:28:28;;;;;;;20.27;11.97;;;;;;;-2.63;76.28;99699.55;3509372;79;21452;-69
2021/12/29 01:33:22;;;;;;;17.02;9.65;;;;;;;-2.59;76.38;99697.63;3491705;80;20998;-69
2021/12/29 01:38:15;;;;;;;17.32;10.60;;;;;;;-2.61;76.23;99702.14;3530123;80;21020;-70
2021/12/29 01:43:09;;;;;;;15.40;10.32;;;;;;;-2.54;76.35;99701.67;3526489;79;21658;-70
2021/12/29 01:48:04;;;;;;;18.92;10.78;;;;;;;-2.45;76.38;99697.09;3463872;80;20915;-69
2021/12/29 01:53:02;;;;;;;15.65;10.95;;;;;;;-2.48;76.08;99696.92;3513611;80;21424;-69
2021/12/29 01:57:53;;;;;;;18.73;10.53;;;;;;;-2.50;76.04;99698.11;3525087;80;21451;-70
2021/12/29 02:02:46;;;;;;;18.42;11.63;;;;;;;-2.50;76.13;99701.06;3505461;79;20927;-69
2021/12/29 02:07:40;;;;;;;17.48;10.88;;;;;;;-2.50;76.13;99701.92;3483626;78;20895;-70
2021/12/29 02:12:33;;;;;;;17.57;11.33;;;;;;;-2.44;76.19;99708.14;3477644;80;21515;-69
2021/12/29 02:17:25;;;;;;;17.37;10.08;;;;;;;-2.45;76.11;99702.19;3573943;78;20943;-69
2021/12/29 02:22:34;;;;;;;17.30;11.20;;;;;;;-2.43;76.00;99700.59;3517392;80;20955;-70
2021/12/29 02:27:14;;;;;;;16.40;10.87;;;;;;;-2.42;76.29;99692.14;3524065;79;21425;-70
2021/12/29 02:32:07;;;;;;;21.35;12.25;;;;;;;-2.44;76.15;99682.28;3519538;79;21449;-70
2021/12/29 02:37:03;;;;;;;16.40;11.43;;;;;;;-2.42;76.17;99687.05;3545013;80;20939;-70
2021/12/29 02:41:54;;;;;;;18.23;13.03;;;;;;;-2.40;76.23;99690.54;3534350;80;20915;-69
2021/12/29 02:46:47;;;;;;;17.98;10.95;;;;;;;-2.45;75.91;99679.27;3535865;80;21908;-69
2021/12/29 02:51:39;;;;;;;16.60;11.15;;;;;;;-2.48;75.97;99663.83;3475809;79;20977;-69
2021/12/29 02:56:31;;;;;;;16.77;10.90;;;;;;;-2.48;76.15;99652.78;3577457;78;21401;-70
2021/12/29 03:01:24;;;;;;;18.02;11.50;;;;;;;-2.50;76.05;99650.16;3522574;80;21389;-70
2021/12/29 03:06:16;;;;;;;18.25;12.05;;;;;;;-2.51;76.04;99657.30;3568444;78;21085;-70
2021/12/29 03:11:09;;;;;;;17.23;11.53;;;;;;;-2.51;76.13;99654.34;3569177;80;21189;-70
2021/12/29 03:16:03;;;;;;;20.05;11.83;;;;;;;-2.51;76.04;99664.94;3502015;78;20962;-69
2021/12/29 03:20:56;;;;;;;19.87;11.33;;;;;;;-2.53;75.94;99658.48;3466161;80;20966;-69
2021/12/29 03:25:49;;;;;;;18.70;11.25;;;;;;;-2.52;76.13;99659.39;3474193;80;21535;-70
2021/12/29 03:30:43;;;;;;;22.40;12.10;;;;;;;-2.47;75.97;99666.84;3505568;80;20933;-70
2021/12/29 03:35:40;;;;;;;17.05;11.83;;;;;;;-2.50;76.13;99664.16;3509719;80;21471;-70
2021/12/29 03:40:35;;;;;;;18.37;11.88;;;;;;;-2.52;75.93;99667.02;3497593;80;20940;-70
2021/12/29 03:45:27;;;;;;;19.30;12.28;;;;;;;-2.50;76.21;99658.66;3511905;79;20965;-70
2021/12/29 03:50:19;;;;;;;19.10;11.45;;;;;;;-2.55;75.95;99665.58;3530997;79;21048;-70
2021/12/29 03:55:13;;;;;;;18.80;12.03;;;;;;;-2.58;76.00;99665.41;3538132;79;21470;-70
2021/12/29 04:00:09;;;;;;;19.17;12.05;;;;;;;-2.58;76.08;99669.23;3550121;79;21081;-70
2021/12/29 04:05:04;;;;;;;17.57;12.63;;;;;;;-2.60;75.90;99681.00;3548895;78;20954;-70
2021/12/29 04:09:57;;;;;;;21.40;12.70;;;;;;;-2.63;75.91;99678.28;3496804;79;21397;-70
2021/12/29 04:14:49;;;;;;;22.70;14.65;;;;;;;-2.64;76.10;99674.88;3525999;78;20959;-69
2021/12/29 04:24:52;;;;;;;19.57;13.00;;;;;;;-2.70;76.13;99667.80;3539149;79;21442;-69
2021/12/29 04:29:44;;;;;;;19.50;12.58;;;;;;;-2.74;75.97;99662.45;3533411;79;20954;-69
2021/12/29 04:34:36;;;;;;;21.90;11.65;;;;;;;-2.73;76.25;99673.98;3587433;78;20888;-70
2021/12/29 04:39:28;;;;;;;16.25;10.50;;;;;;;-2.72;76.21;99672.30;3481227;79;21401;-69
2021/12/29 04:44:20;;;;;;;19.48;13.22;;;;;;;-2.77;75.89;99673.36;3509819;78;20942;-70
2021/12/29 04:49:15;;;;;;;23.52;13.18;;;;;;;-2.81;76.09;99662.92;3557490;79;21833;-70
2021/12/29 04:54:07;;;;;;;21.42;13.10;;;;;;;-2.82;76.06;99667.14;3468536;79;20946;-70
2021/12/29 04:58:59;;;;;;;20.15;12.37;;;;;;;-2.79;76.05;99671.50;3579708;78;20969;-70
2021/12/29 05:03:53;;;;;;;18.90;13.13;;;;;;;-2.77;75.94;99663.18;3536311;78;20936;-70
2021/12/29 05:08:45;;;;;;;21.17;12.03;;;;;;;-2.79;75.96;99664.77;3529067;80;21009;-70
2021/12/29 05:13:41;;;;;;;21.82;13.43;;;;;;;-2.83;75.82;99666.65;3584760;79;20952;-70
2021/12/29 05:18:37;;;;;;;27.05;14.55;;;;;;;-2.87;75.84;99665.61;3496921;79;21060;-70
2021/12/29 05:23:29;;;;;;;23.12;13.13;;;;;;;-2.90;76.02;99654.02;3595742;79;21002;-69
2021/12/29 05:28:24;;;;;;;24.43;14.20;;;;;;;-2.89;76.11;99663.80;3555599;80;20985;-70
2021/12/29 05:33:17;;;;;;;22.37;13.22;;;;;;;-2.89;76.13;99662.52;3540084;80;20961;-69
2021/12/29 05:38:10;;;;;;;22.75;13.35;;;;;;;-2.90;75.99;99674.75;3556639;80;21020;-70
2021/12/29 05:43:03;;;;;;;23.22;13.32;;;;;;;-2.91;76.01;99671.74;3581107;80;21001;-70
2021/12/29 05:47:56;;;;;;;22.67;12.25;;;;;;;-2.88;76.24;99679.14;3558977;78;21446;-70
2021/12/29 05:52:48;;;;;;;19.73;12.98;;;;;;;-2.86;76.18;99681.77;3544000;78;20989;-69
2021/12/29 05:57:41;;;;;;;21.15;13.38;;;;;;;-2.83;76.09;99680.64;3495796;78;20900;-70
2021/12/29 06:02:33;;;;;;;22.65;13.50;;;;;;;-2.92;76.00;99680.16;3541829;78;22132;-70
2021/12/29 06:07:25;;;;;;;24.50;14.43;;;;;;;-2.95;76.13;99681.25;3521727;80;20922;-70
2021/12/29 06:12:17;;;;;;;24.37;15.30;;;;;;;-2.95;76.19;99674.89;3504359;79;21025;-70
2021/12/29 06:17:11;;;;;;;27.37;15.23;;;;;;;-2.94;76.20;99676.25;3524434;79;20990;-70
2021/12/29 06:22:08;;;;;;;28.67;15.70;;;;;;;-2.95;76.19;99669.80;3557995;79;20969;-69
2021/12/29 06:26:57;;;;;;;25.12;13.58;;;;;;;-2.92;76.22;99678.47;3558981;79;20951;-70
2021/12/29 06:31:50;;;;;;;21.02;12.80;;;;;;;-2.96;76.19;99693.51;3518170;79;21437;-69
2021/12/29 06:36:42;;;;;;;27.77;14.70;;;;;;;-2.98;76.25;99711.63;3488440;78;20939;-69
2021/12/29 06:41:34;;;;;;;27.20;14.43;;;;;;;-2.95;76.14;99726.66;3524049;79;20977;-69
2021/12/29 06:46:26;;;;;;;25.95;14.75;;;;;;;-2.93;76.33;99740.34;3531424;78;20915;-69
2021/12/29 06:51:18;;;;;;;25.82;14.78;;;;;;;-3.00;76.12;99728.07;3548524;79;21087;-68
2021/12/29 06:56:11;;;;;;;25.02;14.43;;;;;;;-2.98;76.33;99729.44;3542171;79;20957;-68
2021/12/29 07:01:04;;;;;;;23.22;16.17;;;;;;;-3.02;76.16;99730.94;3483396;79;20983;-70
2021/12/29 07:05:57;;;;;;;26.75;14.83;;;;;;;-3.01;76.26;99739.02;3534086;79;21420;-69
2021/12/29 07:10:50;;;;;;;29.48;15.88;;;;;;;-3.03;76.16;99743.56;3488819;79;20957;-68
2021/12/29 07:15:42;;;;;;;26.42;15.90;;;;;;;-3.02;76.32;99738.94;3508392;80;20973;-69
2021/12/29 07:20:35;;;;;;;26.93;15.05;;;;;;;-2.96;76.34;99743.11;3548489;79;20930;-70
2021/12/29 07:25:29;;;;;;;21.82;13.10;;;;;;;-2.88;76.20;99753.29;3523355;78;20918;-71
2021/12/29 07:30:22;;;;;;;30.27;16.80;;;;;;;-2.85;76.12;99764.91;3489099;79;21537;-67
2021/12/29 07:35:15;;;;;;;33.20;16.17;;;;;;;-2.82;76.24;99760.00;3511960;79;21626;-67
2021/12/29 07:40:09;;;;;;;28.02;15.63;;;;;;;-2.74;76.31;99762.55;3500522;79;21202;-67
2021/12/29 07:45:03;;;;;;;28.30;17.10;;;;;;;-2.60;76.25;99744.63;3497049;78;21009;-68
2021/12/29 07:49:55;;;;;;;29.05;16.57;;;;;;;-2.49;76.08;99748.61;3508400;79;20974;-70
2021/12/29 07:54:47;;;;;;;32.60;17.73;;;;;;;-2.38;75.87;99757.72;3483453;79;21279;-69
2021/12/29 07:59:40;;;;;;;26.20;15.53;;;;;;;-2.25;75.79;99760.51;3530248;79;20979;-69
2021/12/29 08:04:33;;;;;;;31.87;18.73;;;;;;;-2.26;75.37;99751.10;3469306;79;21448;-70
2021/12/29 08:09:25;;;;;;;33.70;16.45;;;;;;;-2.08;75.73;99752.46;3472006;78;21492;-69
2021/12/29 08:14:18;;;;;;;33.05;18.15;;;;;;;-1.95;75.35;99746.32;3539344;78;20906;-70
2021/12/29 08:19:11;;;;;;;29.10;17.30;;;;;;;-2.01;75.02;99746.89;3493636;78;20978;-69
2021/12/29 08:24:03;;;;;;;29.45;17.62;;;;;;;-2.04;75.10;99753.12;3508066;78;22295;-69
2021/12/29 08:28:58;;;;;;;34.43;19.57;;;;;;;-2.06;75.08;99748.31;3468611;79;21145;-70
2021/12/29 08:33:50;;;;;;;33.78;19.73;;;;;;;-2.00;75.35;99743.55;3535485;79;21606;-69
2021/12/29 08:38:43;;;;;;;36.58;19.35;;;;;;;-1.97;75.10;99748.81;3503719;79;21475;-69
2021/12/29 08:43:35;;;;;;;34.08;19.73;;;;;;;-1.92;75.24;99752.86;3530604;79;20958;-68
2021/12/29 08:48:28;;;;;;;39.85;23.02;;;;;;;-1.92;74.92;99751.58;3500728;79;20959;-69
2021/12/29 08:53:20;;;;;;;38.55;21.15;;;;;;;-1.94;74.99;99751.50;3525882;79;21080;-70
2021/12/29 08:58:12;;;;;;;42.85;23.35;;;;;;;-1.88;75.04;99749.66;3502007;79;20981;-69
2021/12/29 09:03:06;;;;;;;48.55;23.07;;;;;;;-1.82;74.97;99752.95;3490455;79;21080;-71
2021/12/29 09:07:58;;;;;;;36.77;20.10;;;;;;;-1.79;74.82;99758.17;3539715;79;20933;-70
2021/12/29 09:12:51;;;;;;;43.42;23.38;;;;;;;-1.87;74.65;99759.48;3551904;79;21013;-70
2021/12/29 09:17:44;;;;;;;45.70;22.98;;;;;;;-1.83;74.79;99753.73;3509944;79;21421;-70
2021/12/29 09:22:36;;;;;;;40.95;21.75;;;;;;;-1.76;74.70;99757.06;3474969;79;21593;-71
2021/12/29 09:27:28;;;;;;;42.88;23.00;;;;;;;-1.70;74.52;99764.14;3489767;79;21016;-69
2021/12/29 09:32:20;;;;;;;40.55;23.62;;;;;;;-1.69;74.48;99762.95;3495719;79;20984;-71
2021/12/29 09:37:12;;;;;;;43.52;22.40;;;;;;;-1.61;74.75;99768.05;3541822;79;21010;-71
2021/12/29 09:42:05;;;;;;;47.53;24.50;;;;;;;-1.59;74.34;99775.36;3492332;79;21636;-71
2021/12/29 09:46:57;;;;;;;38.80;23.90;;;;;;;-1.54;74.44;99769.20;3488299;79;20923;-69
2021/12/29 09:51:51;;;;;;;47.90;24.27;;;;;;;-1.36;74.58;99761.59;3485022;79;20982;-70
2021/12/29 09:56:43;;;;;;;41.23;24.37;;;;;;;-1.22;74.49;99750.80;3500565;80;20986;-70
2021/12/29 10:01:35;;;;;;;43.75;25.35;;;;;;;-1.20;74.36;99758.12;3478279;80;20951;-71
2021/12/29 10:06:28;;;;;;;41.25;24.92;;;;;;;-1.24;74.34;99762.61;3447505;80;21033;-71
2021/12/29 10:11:36;;;;;;;46.80;26.07;;;;;;;-1.28;74.46;99759.03;3446645;80;21023;-70
2021/12/29 10:16:29;;;;;;;47.08;26.17;;;;;;;-1.33;74.36;99756.65;3497628;79;22068;-71
2021/12/29 10:21:26;;;;;;;59.55;32.17;;;;;;;-1.37;74.53;99738.19;3538202;79;21021;-70
2021/12/29 10:26:30;;;;;;;61.28;30.95;;;;;;;-1.46;74.58;99739.88;3571053;79;20970;-70
2021/12/29 10:31:30;;;;;;;51.75;27.02;;;;;;;-1.54;74.67;99743.34;3536443;79;21874;-70
2021/12/29 10:36:27;;;;;;;49.98;25.40;;;;;;;-1.50;74.80;99734.54;3560475;79;20950;-72
2021/12/29 10:41:19;;;;;;;45.30;24.37;;;;;;;-1.43;74.57;99750.61;3540784;79;20958;-72
2021/12/29 10:46:20;;;;;;;52.67;27.52;;;;;;;-1.44;74.65;99756.53;3547334;80;20958;-72
2021/12/29 10:51:12;;;;;;;47.10;26.20;;;;;;;-1.44;74.56;99756.53;3485167;79;21067;-71
2021/12/29 10:56:06;;;;;;;57.50;27.65;;;;;;;-1.41;74.62;99743.94;3532216;79;21215;-69
2021/12/29 11:01:09;;;;;;;56.68;29.75;;;;;;;-1.32;74.80;99745.66;3535147;78;21003;-71
2021/12/29 11:06:04;;;;;;;47.73;24.63;;;;;;;-1.24;74.67;99741.79;3543322;79;21626;-70
2021/12/29 11:11:04;;;;;;;56.00;29.02;;;;;;;-1.25;74.37;99740.44;3464451;79;20954;-71
2021/12/29 11:15:59;;;;;;;53.92;29.32;;;;;;;-1.33;74.75;99738.80;3565357;78;20946;-70
2021/12/29 11:20:55;;;;;;;51.45;28.40;;;;;;;-1.31;74.92;99728.27;3502319;79;20974;-70
2021/12/29 11:25:51;;;;;;;63.85;32.53;;;;;;;-1.24;74.90;99725.21;3540003;78;21009;-70
2021/12/29 11:30:44;;;;;;;59.08;29.48;;;;;;;-1.14;74.81;99744.41;3516707;79;21674;-70
2021/12/29 11:35:54;;;;;;;59.53;32.08;;;;;;;-1.09;74.91;99744.61;3555662;79;20915;-69
2021/12/29 11:40:47;;;;;;;59.10;30.10;;;;;;;-1.01;74.78;99741.63;3464777;80;20976;-71
2021/12/29 11:45:41;;;;;;;60.55;30.25;;;;;;;-0.98;74.67;99737.08;3466823;79;21022;-69
2021/12/29 11:50:37;;;;;;;62.13;30.97;;;;;;;-0.97;74.64;99732.05;3487938;78;21018;-74
2021/12/29 11:55:34;;;;;;;62.88;31.97;;;;;;;-1.00;74.73;99730.62;3505364;80;20953;-74
2021/12/29 12:00:26;;;;;;;61.77;31.60;;;;;;;-1.01;74.78;99733.10;3489741;80;24028;-70
2021/12/29 12:05:24;;;;;;;54.08;30.65;;;;;;;-1.09;74.38;99740.40;3433601;80;20997;-70
2021/12/29 12:10:33;;;;;;;;;;;;;;;-1.21;74.68;99734.70;3433303;81;21227;-71
2021/12/29 12:15:37;;;;;;;61.83;30.60;;;;;;;-1.24;75.02;99735.41;3462604;81;20123;-70
2021/12/29 12:20:34;;;;;;;56.53;32.33;;;;;;;-1.16;75.24;99743.46;3521334;80;21029;-70
2021/12/29 12:25:30;;;;;;;61.45;30.68;;;;;;;-1.16;75.16;99749.42;3489957;80;21012;-69
2021/12/29 12:30:28;;;;;;;68.33;31.80;;;;;;;-1.16;75.09;99752.39;3484748;81;20980;-71
2021/12/29 12:35:31;;;;;;;54.60;27.37;;;;;;;-1.19;75.39;99756.92;3417331;81;21024;-70
2021/12/29 12:40:32;;;;;;;53.10;29.18;;;;;;;-1.16;75.41;99756.22;3448168;81;21493;-71
2021/12/29 12:45:24;;;;;;;60.25;31.42;;;;;;;-1.17;75.33;99759.55;3513105;80;21531;-70
2021/12/29 12:50:28;;;;;;;63.42;32.53;;;;;;;-1.19;75.52;99753.50;3503895;80;21014;-69
2021/12/29 12:55:20;;;;;;;59.65;30.15;;;;;;;-1.23;75.63;99758.86;3446592;80;20922;-70
2021/12/29 13:00:23;;;;;;;70.80;32.98;;;;;;;-1.31;75.77;99756.32;3556397;78;21323;-70
2021/12/29 13:05:27;;;;;;;70.92;35.63;;;;;;;-1.31;75.96;99766.93;3495254;80;20966;-69
2021/12/29 13:10:29;;;;;;;69.85;33.18;;;;;;;-1.31;76.08;99771.63;3497160;79;20902;-70
2021/12/29 13:15:21;;;;;;;60.28;32.03;;;;;;;-1.31;76.28;99765.25;3487713;79;21538;-69
2021/12/29 13:20:15;;;;;;;68.57;33.80;;;;;;;-1.32;76.37;99767.34;3577653;79;21505;-70
2021/12/29 13:25:22;;;;;;;64.60;34.30;;;;;;;-1.34;76.39;99770.22;3489724;79;20991;-70
2021/12/29 13:30:16;;;;;;;65.60;33.92;;;;;;;-1.38;76.46;99779.39;3554928;79;21264;-68
2021/12/29 13:35:08;;;;;;;75.75;32.95;;;;;;;-1.42;76.63;99786.80;3505375;79;20958;-69
2021/12/29 13:40:01;;;;;;;74.65;35.70;;;;;;;-1.49;76.72;99788.57;3539006;78;20957;-69
2021/12/29 13:44:54;;;;;;;69.70;34.27;;;;;;;-1.51;77.06;99791.45;3515638;79;21236;-69
2021/12/29 13:49:46;;;;;;;66.87;35.03;;;;;;;-1.55;77.18;99797.66;3479634;78;21655;-69
2021/12/29 13:54:39;;;;;;;70.80;34.20;;;;;;;-1.57;77.23;99798.39;3546996;79;21041;-69
2021/12/29 13:59:33;;;;;;;72.12;37.10;;;;;;;-1.59;77.40;99812.70;3548505;79;21439;-69
2021/12/29 14:04:32;;;;;;;79.58;39.05;;;;;;;-1.60;77.63;99809.70;3515564;79;20971;-69
2021/12/29 14:09:31;;;;;;;68.02;36.48;;;;;;;-1.59;77.76;99815.25;3497510;79;21977;-68
2021/12/29 14:14:23;;;;;;;79.53;39.08;;;;;;;-1.59;77.91;99831.45;3536665;79;21016;-69
2021/12/29 14:19:16;;;;;;;79.62;40.48;;;;;;;-1.61;78.00;99821.58;3423613;80;20990;-71
2021/12/29 14:24:12;;;;;;;80.72;38.28;;;;;;;-1.62;78.15;99811.30;3519485;78;21568;-69
2021/12/29 14:29:07;;;;;;;85.38;43.23;;;;;;;-1.65;78.22;99820.92;3473277;78;21064;-69
2021/12/29 14:34:02;;;;;;;87.40;40.08;;;;;;;-1.64;78.44;99822.69;3497653;79;20998;-68
2021/12/29 14:39:06;;;;;;;74.40;39.27;;;;;;;-1.65;78.48;99822.20;3548068;79;21014;-67
2021/12/29 14:44:06;;;;;;;84.22;41.65;;;;;;;-1.67;78.58;99826.75;3569639;79;21453;-68
2021/12/29 14:49:03;;;;;;;95.47;45.40;;;;;;;-1.73;78.67;99829.45;3404163;82;20955;-68
2021/12/29 14:53:56;;;;;;;87.37;43.92;;;;;;;-1.72;78.86;99839.25;3455938;79;20960;-67
2021/12/29 14:58:49;;;;;;;93.27;44.67;;;;;;;-1.72;78.94;99854.53;3539595;79;21492;-67
2021/12/29 15:03:43;;;;;;;90.25;42.17;;;;;;;-1.74;78.97;99853.18;3526931;79;22355;-67
2021/12/29 15:08:35;;;;;;;85.45;42.80;;;;;;;-1.73;79.11;99861.31;3489579;79;20981;-67
2021/12/29 15:13:37;;;;;;;96.47;42.67;;;;;;;-1.74;79.02;99859.95;3514403;79;20935;-68
2021/12/29 15:18:42;;;;;;;85.38;38.88;;;;;;;-1.75;79.13;99869.69;3515946;79;21606;-70
2021/12/29 15:23:38;;;;;;;79.00;38.25;;;;;;;-1.76;79.19;99875.16;3559366;79;21006;-68
2021/12/29 15:28:31;;;;;;;73.55;37.78;;;;;;;-1.77;79.27;99877.25;3448295;80;26648;-68
2021/12/29 15:33:31;;;;;;;86.97;39.53;;;;;;;-1.77;79.36;99875.98;3529826;79;21422;-67
2021/12/29 15:38:24;;;;;;;82.78;41.28;;;;;;;-1.76;79.42;99893.00;3527542;79;21508;-68
2021/12/29 15:43:17;;;;;;;87.95;42.58;;;;;;;-1.76;79.47;99904.88;3557679;78;20927;-69
2021/12/29 15:48:10;;;;;;;84.32;41.40;;;;;;;-1.75;79.50;99917.70;3473293;79;20984;-67
2021/12/29 15:53:04;;;;;;;78.30;38.75;;;;;;;-1.74;79.56;99918.58;3539875;79;21549;-69
2021/12/29 15:57:58;;;;;;;90.00;41.18;;;;;;;-1.73;79.58;99911.42;3486478;78;20997;-68
2021/12/29 16:02:51;;;;;;;81.97;40.23;;;;;;;-1.74;79.63;99900.73;3532971;78;21013;-68
2021/12/29 16:07:43;;;;;;;91.55;39.38;;;;;;;-1.74;79.72;99920.72;3518563;79;20962;-68
2021/12/29 16:12:35;;;;;;;74.07;40.03;;;;;;;-1.75;79.65;99929.58;3502996;79;22022;-67
2021/12/29 16:17:28;;;;;;;91.82;44.65;;;;;;;-1.75;79.74;99937.23;3545444;79;21593;-68
2021/12/29 16:22:22;;;;;;;86.22;40.75;;;;;;;-1.77;79.64;99943.89;3527862;79;21001;-68
2021/12/29 16:27:21;;;;;;;76.57;40.60;;;;;;;-1.76;79.82;99946.93;3510447;79;21482;-68
2021/12/29 16:32:08;;;;;;;83.27;41.98;;;;;;;-1.75;79.83;99956.34;3512475;79;20966;-68
2021/12/29 16:37:00;;;;;;;89.92;42.43;;;;;;;-1.75;79.91;99955.07;3472334;80;21017;-67
2021/12/29 16:41:52;;;;;;;90.65;42.80;;;;;;;-1.75;79.94;99951.25;3546616;78;20966;-68
2021/12/29 16:46:45;;;;;;;89.42;44.38;;;;;;;-1.70;80.06;99957.44;3481159;79;42328;-68
2021/12/29 16:51:37;;;;;;;86.32;42.85;;;;;;;-1.70;80.09;99945.97;3452822;79;21071;-67
2021/12/29 16:56:29;;;;;;;81.42;42.65;;;;;;;-1.72;80.10;99951.39;3579954;78;21007;-68
2021/12/29 17:01:21;;;;;;;84.83;43.63;;;;;;;-1.74;80.24;99954.26;3487255;78;20997;-68
2021/12/29 17:06:13;;;;;;;95.50;44.75;;;;;;;-1.73;80.21;99964.95;3528753;78;21402;-68
2021/12/29 17:11:06;;;;;;;81.12;41.95;;;;;;;-1.73;80.27;99959.84;3448021;81;21540;-68
2021/12/29 17:15:58;;;;;;;84.45;44.10;;;;;;;-1.71;80.38;99965.90;3435309;80;20958;-68
2021/12/29 17:20:51;;;;;;;109.57;53.55;;;;;;;-1.70;80.40;99972.73;3538736;78;21534;-68
2021/12/29 17:25:44;;;;;;;92.37;46.58;;;;;;;-1.68;80.46;99973.72;3533704;79;21014;-68
2021/12/29 17:30:36;;;;;;;85.62;45.03;;;;;;;-1.67;80.45;99974.18;3462401;79;22090;-67
2021/12/29 17:35:28;;;;;;;86.60;42.93;;;;;;;-1.67;80.45;99974.18;3469656;79;21011;-68
2021/12/29 17:40:25;;;;;;;90.90;48.02;;;;;;;-1.70;80.53;99972.73;3499207;79;20972;-69
2021/12/29 17:45:19;;;;;;;;;;;;;;;-1.69;80.45;99986.37;3477131;79;20926;-68
2021/12/29 17:50:15;;;;;;;89.70;44.35;;;;;;;-1.72;80.48;99992.17;3563961;79;20109;-68
2021/12/29 17:55:09;;;;;;;92.20;47.58;;;;;;;-1.72;80.68;99987.07;3521603;78;21695;-68
2021/12/29 18:00:05;;;;;;;86.32;44.90;;;;;;;-1.70;80.77;99990.58;3519093;78;20938;-67
2021/12/29 18:04:59;;;;;;;;;;;;;;;-1.68;80.80;99994.11;3527867;79;21004;-68
2021/12/29 18:09:51;;;;;;;90.72;47.67;;;;;;;-1.67;80.85;99983.10;3498561;79;20125;-68
2021/12/29 18:14:43;;;;;;;87.20;46.33;;;;;;;-1.67;80.82;99990.75;3493237;79;20937;-68
2021/12/29 18:19:35;;;;;;;93.33;49.42;;;;;;;-1.66;80.88;99992.52;3540893;79;21035;-68
2021/12/29 18:24:27;;;;;;;86.92;45.08;;;;;;;-1.68;80.89;99996.66;3478923;79;21153;-68
2021/12/29 18:29:20;;;;;;;78.85;42.88;;;;;;;-1.65;80.96;99989.56;3462848;79;20948;-68
2021/12/29 18:34:12;;;;;;;77.82;44.23;;;;;;;-1.62;80.99;99999.53;3495519;78;21015;-68
2021/12/29 18:39:06;;;;;;;78.05;41.83;;;;;;;-1.59;81.01;100007.34;3523400;78;21023;-69
2021/12/29 18:43:59;;;;;;;80.30;42.13;;;;;;;-1.57;81.06;100004.89;3492921;79;21950;-68
2021/12/29 18:48:51;;;;;;;88.17;45.98;;;;;;;-1.55;81.04;100005.44;3502128;79;20933;-68
2021/12/29 18:53:43;;;;;;;78.12;45.12;;;;;;;-1.54;81.10;100008.48;3465834;80;21479;-68
2021/12/29 18:58:35;;;;;;;86.00;44.27;;;;;;;-1.54;81.16;100003.38;3431353;81;20992;-68
2021/12/29 19:03:28;;;;;;;79.50;46.60;;;;;;;-1.54;81.22;100017.78;3470670;80;21233;-68
2021/12/29 19:08:21;;;;;;;93.40;45.90;;;;;;;-1.55;81.18;100019.46;3526800;78;20988;-68
2021/12/29 19:13:14;;;;;;;73.30;41.63;;;;;;;-1.53;81.33;100020.82;3571479;78;21000;-69
2021/12/29 19:18:06;;;;;;;81.60;44.53;;;;;;;-1.56;81.26;100020.27;3411166;79;21556;-68
2021/12/29 19:22:58;;;;;;;76.42;41.85;;;;;;;-1.54;81.47;100022.88;3450152;81;21478;-68
2021/12/29 19:27:50;;;;;;;82.33;44.08;;;;;;;-1.54;81.46;100026.33;3391584;81;21448;-68
2021/12/29 19:32:43;;;;;;;82.25;43.98;;;;;;;-1.54;81.61;100025.42;3512214;78;21480;-67
2021/12/29 19:37:35;;;;;;;77.75;42.60;;;;;;;-1.49;81.65;100028.23;3566652;78;20951;-67
2021/12/29 19:42:27;;;;;;;79.53;43.25;;;;;;;-1.49;81.81;100020.59;3522301;78;20919;-68
2021/12/29 19:47:24;;;;;;;86.10;45.23;;;;;;;-1.48;81.69;100022.36;3520065;78;21002;-68
2021/12/29 19:52:18;;;;;;;72.70;41.18;;;;;;;-1.46;81.80;100020.36;3539209;78;21005;-69
2021/12/29 19:57:10;;;;;;;81.63;44.83;;;;;;;-1.42;81.90;100027.77;3521959;78;21081;-69
2021/12/29 20:02:03;;;;;;;73.25;37.05;;;;;;;-1.41;81.90;100026.59;3547191;78;20999;-68
2021/12/29 20:06:55;;;;;;;85.20;43.78;;;;;;;-1.38;82.02;100022.03;3446353;78;20950;-67
2021/12/29 20:11:48;;;;;;;84.77;46.02;;;;;;;-1.36;81.99;100030.64;3527046;78;20970;-68
2021/12/29 20:16:42;;;;;;;85.70;44.93;;;;;;;-1.36;82.07;100029.36;3455535;81;20950;-68
2021/12/29 20:21:35;;;;;;;92.17;44.18;;;;;;;-1.36;82.08;100021.71;3396698;81;22383;-67
2021/12/29 20:26:27;;;;;;;79.05;41.00;;;;;;;-1.36;82.17;100017.89;3457368;80;20978;-68
2021/12/29 20:31:20;;;;;;;84.67;43.92;;;;;;;-1.37;82.51;100017.42;3496391;78;20949;-68
2021/12/29 20:36:14;;;;;;;89.90;43.60;;;;;;;-1.36;82.47;100024.27;3497083;78;21053;-68
2021/12/29 20:41:06;;;;;;;79.32;42.15;;;;;;;-1.31;82.50;100024.11;3517123;79;20915;-68
2021/12/29 20:46:00;;;;;;;88.12;45.38;;;;;;;-1.31;82.51;100031.77;3524912;79;21862;-68
2021/12/29 20:50:54;;;;;;;83.72;46.75;;;;;;;-1.29;82.63;100024.20;3530151;78;20978;-69
2021/12/29 20:55:46;;;;;;;96.57;50.12;;;;;;;-1.21;82.82;100034.42;3559955;79;22005;-68
2021/12/29 21:00:38;;;;;;;84.70;45.05;;;;;;;-1.16;82.96;100035.14;3595576;78;21138;-69
2021/12/29 21:05:31;;;;;;;85.20;45.40;;;;;;;-1.10;82.98;100020.55;3568410;78;22287;-69
2021/12/29 21:10:28;;;;;;;76.20;41.60;;;;;;;-1.08;82.98;100016.40;3524646;78;21131;-69
2021/12/29 21:15:28;;;;;;;75.77;40.73;;;;;;;-1.05;83.02;100024.63;3568056;78;21021;-68
2021/12/29 21:20:21;;;;;;;86.40;44.60;;;;;;;-1.03;83.10;100019.20;3398852;82;20969;-68
2021/12/29 21:25:17;;;;;;;82.17;44.55;;;;;;;-1.02;83.14;100018.02;3437470;81;21020;-68
2021/12/29 21:30:11;;;;;;;79.35;41.92;;;;;;;-0.99;83.19;100032.59;3442486;81;21455;-68
2021/12/29 21:35:05;;;;;;;85.17;41.55;;;;;;;-0.97;83.24;100033.55;3482917;81;21575;-68
2021/12/29 21:39:58;;;;;;;93.25;46.75;;;;;;;-0.98;83.16;100034.36;3480944;81;20972;-68
2021/12/29 21:44:50;;;;;;;84.62;45.00;;;;;;;-0.94;83.23;100023.51;3388252;81;20979;-68
2021/12/29 21:49:42;;;;;;;87.25;45.95;;;;;;;-0.92;83.23;100016.80;3486285;81;21265;-68
2021/12/29 21:54:35;;;;;;;81.82;43.30;;;;;;;-0.92;83.19;100021.91;3428902;81;20991;-68
2021/12/29 21:59:28;;;;;;;89.85;46.30;;;;;;;-0.91;83.26;100022.77;3441422;81;21815;-69
2021/12/29 22:04:20;;;;;;;83.95;43.30;;;;;;;-0.90;83.35;100017.75;3494083;78;21548;-68
2021/12/29 22:09:12;;;;;;;89.62;47.15;;;;;;;-0.90;83.36;100033.06;3547984;79;20964;-68
2021/12/29 22:14:04;;;;;;;88.75;45.75;;;;;;;-0.89;83.47;100039.94;3479553;79;20947;-68
2021/12/29 22:18:57;;;;;;;96.25;48.05;;;;;;;-0.85;83.53;100054.60;3517932;79;20927;-69
2021/12/29 22:23:51;;;;;;;98.80;47.50;;;;;;;-0.83;83.59;100054.69;3489182;78;21025;-69
2021/12/29 22:28:44;;;;;;;91.55;47.62;;;;;;;-0.81;83.65;100069.27;3475108;80;21012;-69
2021/12/29 22:33:36;;;;;;;92.85;45.92;;;;;;;-0.79;83.67;100068.98;3490837;81;20924;-69
2021/12/29 22:38:31;;;;;;;91.42;47.40;;;;;;;-0.79;83.70;100058.77;3556785;79;20962;-69